Airfield :
LOGIN :

Register | Disclaimer

   EN    FR    IT 

 










Legend :    VFR   Marginal VFR   IFR   Intensive IFR   Very Intensive IFR
Visi :
Ceiling :
>= 8 km
>= 3000ft
5 to 8 km
1000 to 3000 ft
1500m to 5 km
500 to 1000 ft
800 to 1500m
200 to 500 ft
< 800m
< 200 ft
Symbols :   Thunderstorms  Fog  Heavy snow  Heavy precipitations  Wind > 20 kt
SIGMETs :     Misc.  Thunderstorms  Icing  Turbulence  Mountain Waves  Volcanic Ashes







- Airport Elevation : 53 ft
- IATA code : LBC


EDHL - Lübeck

CURRENT METAR :
  • 211620Z 16003KT 120V210 0100 R07/0375N FZFG OVC001 M01/M01 Q1017

EXPIRED METARs :
  • 211550Z VRB01KT 0100 R07/0300N FZFG OVC001 M01/M01 Q1017
  • 211520Z VRB02KT 0100 R07/0250N FZFG OVC001 M01/M01 Q1016
  • 211450Z VRB02KT 0100 R07/0250N FZFG OVC001 M01/M01 Q1016
  • 211420Z 14003KT 120V230 0100 R07/0225N FZFG OVC001 M01/M01 Q1016
  • 211350Z VRB02KT 0100 R07/0200N FZFG OVC001 M01/M01 Q1016
  • 211320Z VRB02KT 0100 R07/0200 FZFG OVC001 M01/M01 Q1015

TAF TAF EDHL
Valid from the 21 at 15:00 until the 21 at 21:00 UTC


211400Z 2115/2121 VRB03KT 0300 FZFG OVC000
BECMG 2116/2119 3000 BR BKN005
No reported NOTAMs for that airfield.



MET'MAP, your aeronautical weather chart ! - Copyright ORBIFLY December 2007 - Disclaimer

ORBIFLY MET'MAP TEAM :

Programming & Development : Alexandra Zaïnal
Concept & Development : Baudouin d'Aumeries
Co-Development & Prog : Marc-Olivier Méhu
Technical & hardware support : Manuel Goepfert

Contact : metmap@orbifly.com




SOURCES & CREDITS :

   NOAA